createdAt,value
2023-03-26T00:01:38.196Z,100154.88
2023-03-26T00:04:07.858Z,100151.78
2023-03-26T00:06:39.788Z,100149.91
2023-03-26T00:09:10.637Z,100146.00
2023-03-26T00:11:45.329Z,100136.22
2023-03-26T00:14:14.198Z,100138.16
2023-03-26T00:16:42.828Z,100136.22
2023-03-26T00:19:15.674Z,100144.88
2023-03-26T00:21:43.687Z,100136.31
2023-03-26T00:24:16.343Z,100146.75
2023-03-26T00:26:45.176Z,100144.13
2023-03-26T00:29:14.053Z,100135.81
2023-03-26T00:31:46.505Z,100130.81
2023-03-26T00:34:18.471Z,100125.03
2023-03-26T00:36:47.214Z,100127.94
2023-03-26T00:39:18.020Z,100121.16
2023-03-26T00:41:46.847Z,100114.94
2023-03-26T00:44:14.969Z,100112.94
2023-03-26T00:46:42.939Z,100114.81
2023-03-26T00:49:14.863Z,100104.06
2023-03-26T00:51:45.345Z,100106.38
2023-03-26T00:54:12.889Z,100104.38
2023-03-26T00:56:45.430Z,100108.47
2023-03-26T00:59:13.745Z,100105.06
2023-03-26T01:01:41.864Z,100102.34
2023-03-26T01:04:39.595Z,100107.38
2023-03-26T01:07:13.555Z,100104.59
2023-03-26T01:09:45.175Z,100099.56
2023-03-26T01:12:18.698Z,100095.78
2023-03-26T01:14:55.150Z,100087.59
2023-03-26T01:17:23.984Z,100084.97
2023-03-26T01:20:16.466Z,100086.94
2023-03-26T01:22:54.547Z,100080.84
2023-03-26T01:25:26.877Z,100087.75
2023-03-26T01:27:56.349Z,100077.66
2023-03-26T01:30:43.020Z,100081.06
2023-03-26T01:33:34.023Z,100073.34
2023-03-26T01:36:12.016Z,100072.88
2023-03-26T01:39:25.352Z,100080.44
2023-03-26T01:41:59.810Z,100074.91
2023-03-26T01:44:33.616Z,100067.47
2023-03-26T01:47:01.902Z,100060.31
2023-03-26T01:49:31.281Z,100055.38
2023-03-26T01:51:59.145Z,100053.78
2023-03-26T01:54:30.339Z,100041.75
2023-03-26T01:57:28.497Z,100051.69
2023-03-26T02:00:18.553Z,100048.75
2023-03-26T02:03:19.606Z,100054.78
2023-03-26T02:06:04.414Z,100056.41
2023-03-26T02:08:41.872Z,100058.28
2023-03-26T02:11:13.211Z,100068.94
2023-03-26T02:13:45.116Z,100068.47
2023-03-26T02:16:16.608Z,100068.47
2023-03-26T02:18:51.532Z,100069.41
2023-03-26T02:21:22.001Z,100069.66
2023-03-26T02:23:57.859Z,100061.97
2023-03-26T02:26:25.917Z,100066.22
2023-03-26T02:28:59.374Z,100071.47
2023-03-26T02:31:31.448Z,100058.69
2023-03-26T02:33:59.165Z,100061.22
2023-03-26T02:36:29.576Z,100059.25
2023-03-26T02:39:00.973Z,100047.66
2023-03-26T02:41:35.992Z,100050.75
2023-03-26T02:44:10.383Z,100044.28
2023-03-26T02:46:56.634Z,100048.41
2023-03-26T02:49:50.681Z,100050.13
2023-03-26T02:52:43.155Z,100055.78
2023-03-26T02:55:11.405Z,100049.81
2023-03-26T02:57:41.361Z,100056.94
2023-03-26T03:00:11.259Z,100043.59
2023-03-26T03:02:40.413Z,100042.09
2023-03-26T03:05:43.359Z,100038.41
2023-03-26T03:08:13.431Z,100032.16
2023-03-26T03:11:08.593Z,100032.56
2023-03-26T03:13:43.216Z,100030.38
2023-03-26T03:16:12.573Z,100032.59
2023-03-26T03:18:41.263Z,100031.56
2023-03-26T03:21:09.296Z,100029.13
2023-03-26T03:23:39.805Z,100026.44
2023-03-26T03:26:17.123Z,100022.78
2023-03-26T03:28:51.945Z,100030.91
2023-03-26T03:31:21.844Z,100029.91
2023-03-26T03:33:49.660Z,100040.50
2023-03-26T03:36:24.003Z,100031.75
2023-03-26T03:39:02.817Z,100038.88
2023-03-26T03:41:33.979Z,100025.72
2023-03-26T03:44:04.651Z,100026.44
2023-03-26T03:46:33.366Z,100027.59
2023-03-26T03:49:01.167Z,100023.72
2023-03-26T03:51:36.227Z,100014.91
2023-03-26T03:54:08.753Z,100014.72
2023-03-26T03:56:59.077Z,100020.66
2023-03-26T03:59:32.905Z,100013.75
2023-03-26T04:02:03.060Z,100021.56
2023-03-26T04:04:35.264Z,100026.25
2023-03-26T04:07:06.139Z,100021.00
2023-03-26T04:10:00.015Z,100020.03
2023-03-26T04:12:32.825Z,100020.69
2023-03-26T04:15:04.376Z,100020.34
2023-03-26T04:17:33.283Z,100031.91
2023-03-26T04:20:06.969Z,100042.91
2023-03-26T04:22:35.240Z,100026.13
2023-03-26T04:25:11.132Z,100033.84
2023-03-26T04:27:48.910Z,100021.94
2023-03-26T04:30:27.531Z,100015.38
2023-03-26T04:33:18.877Z,100031.75
2023-03-26T04:35:48.399Z,100038.97
2023-03-26T04:38:23.161Z,100037.19
2023-03-26T04:40:53.745Z,100034.25
2023-03-26T04:43:50.752Z,100031.63
2023-03-26T04:46:35.514Z,100035.94
2023-03-26T04:49:25.876Z,100037.19
2023-03-26T04:51:55.505Z,100040.03
2023-03-26T04:54:44.767Z,100052.63
2023-03-26T04:57:26.392Z,100041.97
2023-03-26T05:00:19.676Z,100049.84
2023-03-26T05:03:01.729Z,100042.22
2023-03-26T05:05:30.637Z,100041.81
2023-03-26T05:08:00.412Z,100038.44
2023-03-26T05:10:28.260Z,100040.44
2023-03-26T05:13:11.071Z,100038.34
2023-03-26T05:15:45.149Z,100034.25
2023-03-26T05:18:34.037Z,100036.06
2023-03-26T05:21:02.920Z,100045.66
2023-03-26T05:23:31.793Z,100052.88
2023-03-26T05:26:17.955Z,100041.13
2023-03-26T05:28:45.618Z,100041.19
2023-03-26T05:31:23.829Z,100030.38
2023-03-26T05:33:55.264Z,100036.38
2023-03-26T05:36:26.110Z,100040.88
2023-03-26T05:39:05.036Z,100037.31
2023-03-26T05:41:56.307Z,100046.44
2023-03-26T05:44:33.684Z,100026.63
2023-03-26T05:47:04.996Z,100031.75
2023-03-26T05:49:32.629Z,100020.28
2023-03-26T05:52:06.181Z,100029.75
2023-03-26T05:54:47.314Z,100019.97
2023-03-26T05:57:35.576Z,100025.38
2023-03-26T06:00:22.262Z,100014.19
2023-03-26T06:02:56.675Z,100020.81
2023-03-26T06:05:53.730Z,100019.66
2023-03-26T06:08:36.723Z,100030.94
2023-03-26T06:11:08.194Z,100031.81
2023-03-26T06:13:43.768Z,100026.13
2023-03-26T06:16:26.268Z,100028.00
2023-03-26T06:19:10.607Z,100020.78
2023-03-26T06:21:59.985Z,100028.09
2023-03-26T06:24:47.826Z,100020.91
2023-03-26T06:27:40.523Z,100022.31
2023-03-26T06:30:31.546Z,100014.19
2023-03-26T06:33:08.936Z,100012.50
2023-03-26T06:35:45.565Z,100011.38
2023-03-26T06:38:14.804Z,100020.72
2023-03-26T06:40:45.052Z,100016.09
2023-03-26T06:43:36.402Z,100005.22
2023-03-26T06:46:11.190Z,100016.47
2023-03-26T06:48:40.342Z,100008.22
2023-03-26T06:51:26.867Z,100010.75
2023-03-26T06:54:14.091Z,100006.94
2023-03-26T06:56:51.078Z,99993.94
2023-03-26T06:59:37.196Z,100002.38
2023-03-26T07:02:28.090Z,99996.16
2023-03-26T07:05:15.759Z,100001.50
2023-03-26T07:08:03.030Z,99999.50
2023-03-26T07:10:49.198Z,100006.59
2023-03-26T07:13:31.756Z,99996.22
2023-03-26T07:16:22.800Z,100003.03
2023-03-26T07:19:03.100Z,99989.88
2023-03-26T07:21:36.595Z,99998.25
2023-03-26T07:24:12.542Z,99995.19
2023-03-26T07:27:27.165Z,99998.72
2023-03-26T07:30:04.493Z,100003.84
2023-03-26T07:33:11.065Z,99991.13
2023-03-26T07:36:08.195Z,99996.91
2023-03-26T07:39:39.079Z,100001.97
2023-03-26T07:42:48.009Z,99998.53
2023-03-26T07:45:39.876Z,100003.91
2023-03-26T07:48:40.846Z,99990.91
2023-03-26T07:51:29.275Z,99986.69
2023-03-26T07:54:35.492Z,99990.31
2023-03-26T07:57:49.543Z,99992.50
2023-03-26T08:00:56.163Z,99982.59
2023-03-26T08:03:54.617Z,99982.34
2023-03-26T08:06:48.877Z,99994.16
2023-03-26T08:09:35.103Z,99987.69
2023-03-26T08:12:27.181Z,99980.38
2023-03-26T08:15:12.464Z,99978.84
2023-03-26T08:18:00.189Z,99970.34
2023-03-26T08:20:41.576Z,99976.78
2023-03-26T08:23:32.729Z,99977.44
2023-03-26T08:26:17.503Z,99984.69
2023-03-26T08:29:09.986Z,99985.28
2023-03-26T08:31:41.461Z,99978.84
2023-03-26T08:34:13.632Z,99989.91
2023-03-26T08:36:43.048Z,99983.13
2023-03-26T08:39:10.755Z,99994.91
2023-03-26T08:41:45.041Z,99992.16
2023-03-26T08:44:51.524Z,99991.56
2023-03-26T08:47:42.539Z,99996.06
2023-03-26T08:50:43.799Z,99981.75
2023-03-26T08:53:14.292Z,99979.19
2023-03-26T08:56:13.030Z,99984.28
2023-03-26T08:58:51.275Z,99989.31
2023-03-26T09:01:28.303Z,99984.47
2023-03-26T09:04:29.710Z,99979.22
2023-03-26T09:07:31.458Z,99983.00
2023-03-26T09:10:17.129Z,99977.97
2023-03-26T09:13:17.372Z,99979.31
2023-03-26T09:16:09.394Z,99974.75
2023-03-26T09:18:53.687Z,99982.00
2023-03-26T09:21:25.615Z,99970.97
2023-03-26T09:24:18.079Z,99978.06
2023-03-26T09:26:59.447Z,99964.59
2023-03-26T09:29:41.869Z,99966.09
2023-03-26T09:32:42.731Z,99954.41
2023-03-26T09:35:33.277Z,99949.22
2023-03-26T09:38:11.310Z,99959.50
2023-03-26T09:40:53.159Z,99954.16
2023-03-26T09:43:36.860Z,99943.69
2023-03-26T09:46:22.612Z,99950.69
2023-03-26T09:48:54.506Z,99955.13
2023-03-26T09:51:53.752Z,99940.69
2023-03-26T09:54:44.632Z,99941.53
2023-03-26T09:57:46.979Z,99935.59
2023-03-26T10:00:18.107Z,99927.22
2023-03-26T10:03:11.579Z,99943.25
2023-03-26T10:05:42.649Z,99935.72
2023-03-26T10:08:31.638Z,99929.47
2023-03-26T10:11:21.731Z,99931.06
2023-03-26T10:13:55.822Z,99929.75
2023-03-26T10:16:33.168Z,99924.69
2023-03-26T10:19:20.378Z,99927.72
2023-03-26T10:22:03.995Z,99921.84
2023-03-26T10:24:44.164Z,99923.38
2023-03-26T10:27:38.304Z,99941.16
2023-03-26T10:30:39.072Z,99928.81
2023-03-26T10:33:07.025Z,99926.66
2023-03-26T10:36:08.109Z,99935.59
2023-03-26T10:38:42.262Z,99939.56
2023-03-26T10:41:09.791Z,99934.47
2023-03-26T10:43:46.417Z,99936.19
2023-03-26T10:46:34.769Z,99928.28
2023-03-26T10:49:14.519Z,99922.91
2023-03-26T10:51:44.796Z,99920.84
2023-03-26T10:54:31.350Z,99914.31
2023-03-26T10:57:01.596Z,99914.88
2023-03-26T10:59:30.733Z,99903.38
2023-03-26T11:02:29.192Z,99907.34
2023-03-26T11:05:19.522Z,99900.28
2023-03-26T11:07:47.160Z,99906.16
2023-03-26T11:10:28.088Z,99895.63
2023-03-26T11:13:16.158Z,99896.84
2023-03-26T11:15:51.377Z,99897.97
2023-03-26T11:18:26.043Z,99890.53
2023-03-26T11:21:19.452Z,99891.19
2023-03-26T11:24:26.651Z,99888.44
2023-03-26T11:26:58.054Z,99888.28
2023-03-26T11:29:49.926Z,99874.97
2023-03-26T11:32:26.260Z,99879.84
2023-03-26T11:35:14.897Z,99883.84
2023-03-26T11:37:54.668Z,99876.19
2023-03-26T11:40:46.326Z,99871.63
2023-03-26T11:43:28.056Z,99870.84
2023-03-26T11:45:56.584Z,99875.22
2023-03-26T11:48:34.184Z,99876.44
2023-03-26T11:51:09.126Z,99867.75
2023-03-26T11:53:47.035Z,99871.91
2023-03-26T11:56:27.112Z,99863.38
2023-03-26T11:59:01.361Z,99860.19
2023-03-26T12:01:50.423Z,99855.16
2023-03-26T12:04:40.663Z,99856.56
2023-03-26T12:07:30.433Z,99853.69
2023-03-26T12:10:18.085Z,99850.25
2023-03-26T12:12:54.731Z,99848.78
2023-03-26T12:15:25.017Z,99847.84
2023-03-26T12:17:59.415Z,99851.28
2023-03-26T12:20:31.540Z,99842.72
2023-03-26T12:23:02.073Z,99840.75
2023-03-26T12:25:33.997Z,99852.78
2023-03-26T12:28:14.126Z,99841.72
2023-03-26T12:30:53.054Z,99841.88
2023-03-26T12:33:27.125Z,99835.25
2023-03-26T12:36:00.728Z,99829.59
2023-03-26T12:38:35.893Z,99833.28
2023-03-26T12:44:44.333Z,99833.41
2023-03-26T12:44:46.609Z,99831.66
2023-03-26T12:47:58.584Z,99830.38
2023-03-26T12:50:03.909Z,99832.03
2023-03-26T12:52:41.839Z,99834.34
2023-03-26T12:55:35.473Z,99840.72
2023-03-26T12:58:41.609Z,99835.00
2023-03-26T13:01:33.245Z,99837.63
2023-03-26T13:04:37.639Z,99834.59
2023-03-26T13:07:23.528Z,99832.22
2023-03-26T13:10:27.010Z,99830.97
2023-03-26T13:12:55.823Z,99827.38
2023-03-26T13:15:33.135Z,99818.13
2023-03-26T13:18:46.219Z,99815.31
2023-03-26T13:21:37.565Z,99809.81
2023-03-26T13:24:29.270Z,99802.34
2023-03-26T13:27:27.940Z,99801.66
2023-03-26T13:30:14.644Z,99804.59
2023-03-26T13:33:21.055Z,99803.41
2023-03-26T13:36:19.098Z,99806.44
2023-03-26T13:39:08.214Z,99802.19
2023-03-26T13:41:51.129Z,99798.53
2023-03-26T13:44:41.516Z,99800.59
2023-03-26T13:47:20.631Z,99804.97
2023-03-26T13:50:18.936Z,99806.66
2023-03-26T13:52:59.481Z,99806.50
2023-03-26T13:55:36.267Z,99807.78
2023-03-26T13:58:06.942Z,99806.66
2023-03-26T14:00:55.449Z,99799.09
2023-03-26T14:03:29.104Z,99796.97
2023-03-26T14:06:03.780Z,99793.28
2023-03-26T14:08:39.611Z,99791.94
2023-03-26T14:11:22.784Z,99784.59
2023-03-26T14:14:04.237Z,99783.63
2023-03-26T14:16:40.643Z,99769.66
2023-03-26T14:19:42.208Z,99772.63
2023-03-26T14:22:35.373Z,99776.13
2023-03-26T14:25:40.811Z,99759.16
2023-03-26T14:28:24.360Z,99767.63
2023-03-26T14:31:19.593Z,99762.69
2023-03-26T14:34:05.225Z,99761.56
2023-03-26T14:36:59.233Z,99761.75
2023-03-26T14:39:58.191Z,99763.75
2023-03-26T14:43:04.337Z,99761.13
2023-03-26T14:45:44.834Z,99758.78
2023-03-26T14:48:34.019Z,99754.91
2023-03-26T14:51:20.415Z,99756.13
2023-03-26T14:53:54.723Z,99754.44
2023-03-26T14:56:43.804Z,99758.66
2023-03-26T14:59:45.909Z,99757.63
2023-03-26T15:02:23.141Z,99755.19
2023-03-26T15:05:00.172Z,99757.94
2023-03-26T15:08:05.029Z,99757.53
2023-03-26T15:10:43.283Z,99750.97
2023-03-26T15:13:20.827Z,99764.91
2023-03-26T15:16:13.733Z,99762.16
2023-03-26T15:18:57.400Z,99760.56
2023-03-26T15:21:40.598Z,99759.00
2023-03-26T15:24:27.398Z,99755.78
2023-03-26T15:27:37.347Z,99753.88
2023-03-26T15:30:42.806Z,99754.72
2023-03-26T15:33:46.925Z,99741.75
2023-03-26T15:36:58.957Z,99747.97
2023-03-26T15:40:08.238Z,99753.16
2023-03-26T15:42:42.333Z,99754.56
2023-03-26T15:45:42.256Z,99753.88
2023-03-26T15:48:13.220Z,99754.22
2023-03-26T15:51:07.898Z,99750.50
2023-03-26T15:54:06.669Z,99746.09
2023-03-26T15:56:58.961Z,99749.31
2023-03-26T15:59:54.443Z,99747.09
2023-03-26T16:02:40.286Z,99751.31
2023-03-26T16:05:23.151Z,99751.31
2023-03-26T16:08:02.991Z,99764.31
2023-03-26T16:10:53.042Z,99760.00
2023-03-26T16:13:26.696Z,99762.19
2023-03-26T16:16:07.224Z,99766.88
2023-03-26T16:18:41.247Z,99773.03
2023-03-26T16:21:32.082Z,99769.28
2023-03-26T16:24:07.449Z,99771.38
2023-03-26T16:26:44.289Z,99781.72
2023-03-26T16:29:26.825Z,99783.41
2023-03-26T16:32:18.669Z,99784.56
2023-03-26T16:35:04.935Z,99782.09
2023-03-26T16:37:50.108Z,99786.25
2023-03-26T16:40:24.043Z,99785.88
2023-03-26T16:42:57.931Z,99784.75
2023-03-26T16:45:46.468Z,99790.50
2023-03-26T16:48:36.227Z,99796.13
2023-03-26T16:51:30.673Z,99794.44
2023-03-26T16:54:17.647Z,99798.41
2023-03-26T16:57:10.511Z,99794.72
2023-03-26T17:00:23.612Z,99802.63
2023-03-26T17:03:35.654Z,99803.47
2023-03-26T17:06:24.481Z,99810.75
2023-03-26T17:09:14.195Z,99813.00
2023-03-26T17:11:51.582Z,99816.75
2023-03-26T17:14:51.247Z,99815.06
2023-03-26T17:17:41.105Z,99821.91
2023-03-26T17:20:37.005Z,99826.44
2023-03-26T17:23:30.828Z,99819.47
2023-03-26T17:26:09.999Z,99827.03
2023-03-26T17:29:03.315Z,99831.97
2023-03-26T17:31:50.983Z,99824.44
2023-03-26T17:34:49.225Z,99822.28
2023-03-26T17:37:17.351Z,99825.22
2023-03-26T17:39:47.987Z,99831.03
2023-03-26T17:42:33.031Z,99826.91
2023-03-26T17:45:23.497Z,99824.38
2023-03-26T17:47:58.715Z,99830.28
2023-03-26T17:50:32.267Z,99836.22
2023-03-26T17:53:17.815Z,99831.13
2023-03-26T17:55:46.641Z,99826.53
2023-03-26T17:58:48.006Z,99826.06
2023-03-26T18:01:53.132Z,99832.75
2023-03-26T18:04:34.062Z,99824.06
2023-03-26T18:07:34.966Z,99829.63
2023-03-26T18:10:22.454Z,99830.13
2023-03-26T18:13:12.489Z,99828.88
2023-03-26T18:16:05.833Z,99827.28
2023-03-26T18:18:52.409Z,99831.00
2023-03-26T18:21:39.013Z,99832.34
2023-03-26T18:24:12.965Z,99824.16
2023-03-26T18:26:47.179Z,99829.16
2023-03-26T18:29:24.706Z,99826.69
2023-03-26T18:31:58.363Z,99831.00
2023-03-26T18:34:29.251Z,99824.25
2023-03-26T18:37:03.031Z,99827.81
2023-03-26T18:39:31.148Z,99835.31
2023-03-26T18:41:58.870Z,99832.75
2023-03-26T18:44:27.544Z,99830.84
2023-03-26T18:46:55.680Z,99827.72
2023-03-26T18:49:26.516Z,99830.16
2023-03-26T18:51:57.589Z,99836.13
2023-03-26T18:54:34.514Z,99831.59
2023-03-26T18:57:15.511Z,99827.47
2023-03-26T18:59:45.661Z,99833.09
2023-03-26T19:02:14.730Z,99826.13
2023-03-26T19:04:46.817Z,99820.88
2023-03-26T19:07:26.677Z,99816.72
2023-03-26T19:09:56.628Z,99821.03
2023-03-26T19:12:32.624Z,99814.44
2023-03-26T19:15:09.647Z,99814.22
2023-03-26T19:17:47.526Z,99816.81
2023-03-26T19:20:21.817Z,99814.06
2023-03-26T19:22:51.026Z,99819.06
2023-03-26T19:25:24.132Z,99817.25
2023-03-26T19:27:52.580Z,99813.25
2023-03-26T19:30:35.218Z,99810.63
2023-03-26T19:33:14.371Z,99806.09
2023-03-26T19:35:44.199Z,99815.47
2023-03-26T19:38:27.513Z,99817.25
2023-03-26T19:40:57.793Z,99819.69
2023-03-26T19:43:27.219Z,99810.00
2023-03-26T19:48:49.283Z,99811.81
2023-03-26T19:51:18.382Z,99811.06
2023-03-26T19:51:21.551Z,99813.81
2023-03-26T19:53:54.351Z,99815.41
2023-03-26T19:56:23.479Z,99810.69
2023-03-26T19:58:51.359Z,99810.00
2023-03-26T20:01:27.359Z,99810.50
2023-03-26T20:03:59.951Z,99810.34
2023-03-26T20:06:42.514Z,99806.81
2023-03-26T20:09:13.126Z,99814.06
2023-03-26T20:11:41.763Z,99807.13
2023-03-26T20:14:15.755Z,99800.31
2023-03-26T20:19:31.502Z,99796.00
2023-03-26T20:21:59.198Z,99800.84
2023-03-26T20:24:33.219Z,99798.22
2023-03-26T20:27:00.742Z,99790.16
2023-03-26T20:29:28.767Z,99792.41
2023-03-26T20:31:56.422Z,99789.78
2023-03-26T20:34:24.658Z,99791.47
2023-03-26T20:36:55.376Z,99789.78
2023-03-26T20:39:24.509Z,99785.22
2023-03-26T20:41:56.483Z,99786.16
2023-03-26T20:44:26.856Z,99795.09
2023-03-26T20:46:56.605Z,99783.72
2023-03-26T20:49:25.173Z,99779.28
2023-03-26T20:51:54.313Z,99787.84
2023-03-26T20:54:24.692Z,99794.72
2023-03-26T20:56:54.234Z,99792.25
2023-03-26T20:59:27.804Z,99789.56
2023-03-26T21:01:59.568Z,99787.94
2023-03-26T21:04:27.698Z,99783.88
2023-03-26T21:07:06.679Z,99784.56
2023-03-26T21:09:40.139Z,99794.81
2023-03-26T21:12:15.517Z,99791.78
2023-03-26T21:14:52.807Z,99783.25
2023-03-26T21:17:23.943Z,99780.88
2023-03-26T21:19:52.071Z,99780.63
2023-03-26T21:22:30.360Z,99782.78
2023-03-26T21:25:42.984Z,99782.03
2023-03-26T21:28:41.872Z,99783.31
2023-03-26T21:31:19.535Z,99773.53
2023-03-26T21:33:49.464Z,99773.53
2023-03-26T21:36:19.818Z,99772.13
2023-03-26T21:38:47.821Z,99768.75
2023-03-26T21:41:28.753Z,99767.47
2023-03-26T21:43:56.446Z,99771.34
2023-03-26T21:46:24.307Z,99767.34
2023-03-26T21:48:55.426Z,99766.50
2023-03-26T21:51:23.618Z,99767.88
2023-03-26T21:53:52.136Z,99764.59
2023-03-26T21:56:44.788Z,99755.91
2023-03-26T21:59:21.145Z,99754.81
2023-03-26T22:02:12.906Z,99758.53
2023-03-26T22:04:54.312Z,99756.81
2023-03-26T22:07:50.435Z,99757.38
2023-03-26T22:10:18.749Z,99756.44
2023-03-26T22:12:46.300Z,99761.59
2023-03-26T22:15:14.229Z,99757.78
2023-03-26T22:17:42.382Z,99759.81
2023-03-26T22:20:19.519Z,99753.81
2023-03-26T22:22:48.899Z,99750.91
2023-03-26T22:25:20.894Z,99759.47
2023-03-26T22:27:50.822Z,99758.63
2023-03-26T22:30:20.763Z,99753.44
2023-03-26T22:32:48.957Z,99751.06
2023-03-26T22:35:16.645Z,99759.16
2023-03-26T22:37:44.136Z,99758.88
2023-03-26T22:40:16.197Z,99757.47
2023-03-26T22:42:43.910Z,99757.19
2023-03-26T22:45:15.216Z,99759.06
2023-03-26T22:47:46.631Z,99762.28
2023-03-26T22:50:14.766Z,99758.03
2023-03-26T22:52:42.599Z,99751.56
2023-03-26T22:55:11.641Z,99751.56
2023-03-26T22:57:41.416Z,99753.44
2023-03-26T23:00:19.703Z,99754.19
2023-03-26T23:02:47.534Z,99759.88
2023-03-26T23:05:19.842Z,99752.91
2023-03-26T23:07:49.056Z,99757.53
2023-03-26T23:10:16.553Z,99758.94
2023-03-26T23:12:50.395Z,99759.88
2023-03-26T23:15:20.593Z,99760.66
2023-03-26T23:17:54.647Z,99765.63
2023-03-26T23:20:22.555Z,99761.41
2023-03-26T23:22:51.446Z,99755.66
2023-03-26T23:25:20.093Z,99757.53
2023-03-26T23:27:48.501Z,99745.84
2023-03-26T23:30:16.750Z,99746.63
2023-03-26T23:32:49.541Z,99743.91
2023-03-26T23:35:17.334Z,99743.13
2023-03-26T23:37:44.943Z,99739.84
2023-03-26T23:40:13.910Z,99735.75
2023-03-26T23:42:42.498Z,99749.16
2023-03-26T23:45:13.114Z,99739.38
2023-03-26T23:47:42.589Z,99734.00
2023-03-26T23:50:13.385Z,99750.50
2023-03-26T23:52:45.486Z,99748.13
2023-03-26T23:55:13.111Z,99747.53
2023-03-26T23:57:41.448Z,99749.34
